Aérodrome :
LOGIN :

S'inscrire | Disclaimer

   EN    FR    IT 

 










Légende :    VFR   VFR Marginal   IFR   IFR Intensif   IFR Très Intensif
Visi : 
Plafond : 
>= 8 km
>= 3000ft
5 à 8 km
1000 à 3000 ft
1500m à 5 km
500 à 1000 ft
800 à 1500m
200 à 500 ft
< 800m
< 200 ft
Symboles :   Orages  Brouillard  Fortes neiges  Fortes précipitations  Vent > 20 kt
SIGMETs :   Divers  Orages  Givrage  Turbulence  Onde Orograph.  Cendres Volcan.






- Altitude de l'aérodrome : 1568 ft


ETSB - Büchel AB

DERNIER METAR :
  • 272120Z AUTO 30008KT 1900 // ////// M00/M02 Q1005 ///

METARs EXPIRÉS :
  • 272020Z AUTO 30007KT 1800 // ////// M00/M02 Q1003 ///
  • 271920Z AUTO 31009KT 1400 // ////// M01/M02 Q1000 ///

TAF AMD TAF ETSB
Valide du 27 à 16h jusqu'au 28 à 00h UTC


271617Z 2716/2724 09015KT 0200 SN FZFG VV001
TEMPO 2716/2717 36015G25KT 2000 -SN FZFG SCT001 BKN003
BECMG 2717/2718 28015KT 3000 BR SCT001 BKN003
TEMPO 2717/2724 33015G25KT 0500 -SN FZFG VV001 BKN003 CANCEL 1620 BY ETGL



MET'MAP, la Météo Aéronautique d'un coup d'oeil ! - Copyright ORBIFLY Décembre 2007 - Disclaimer

ORBIFLY MET'MAP TEAM :

Programmation & Développement : Alexandra Zaïnal
Sur une idée originale de : Baudouin d'Aumeries
Assistance à la programmation : Marc-Olivier Méhu
Soutien technique & logistique : Manuel Goepfert

Contact : metmap@orbifly.com




SOURCES & CREDITS :

   NOAA